Time;durP1;ratioP1;P1;durP2;ratioP2;P2;SDS_P1;SDS_P2;PMS_P1;PMS_P2;Temp;Humidity;BMP_temperature;BMP_pressure;BME280_temperature;BME280_humidity;BME280_pressure;Samples;Min_cycle;Max_cycle;Signal;HPM_P1;HPM_P2
2024/01/09 00:02:13;;;;;;;0.95;0.35;;;;;;;8.51;100.00;100978.19;6234124;23;20008;-86
2024/01/09 00:04:44;;;;;;;0.27;0.17;;;;;;;8.47;100.00;100977.19;6236411;23;20019;-86
2024/01/09 00:07:13;;;;;;;0.43;0.22;;;;;;;8.49;100.00;100979.81;6236271;23;20103;-88
2024/01/09 00:09:45;;;;;;;0.98;0.73;;;;;;;8.50;100.00;100986.75;6232745;23;20099;-82
2024/01/09 00:12:15;;;;;;;0.75;0.35;;;;;;;8.52;100.00;100986.00;6228203;23;20048;-85
2024/01/09 00:14:45;;;;;;;1.27;0.75;;;;;;;8.51;100.00;100986.81;6223745;23;20025;-84
2024/01/09 00:17:13;;;;;;;0.98;0.30;;;;;;;8.47;100.00;100979.75;6221790;23;20041;-85
2024/01/09 00:19:42;;;;;;;0.52;0.10;;;;;;;8.49;100.00;100975.53;6219496;23;20198;-83
2024/01/09 00:22:11;;;;;;;0.25;0.20;;;;;;;8.50;100.00;100973.88;6220412;23;20013;-82
2024/01/09 00:24:50;;;;;;;2.78;0.90;;;;;;;8.50;100.00;100958.41;6219425;23;20038;-83
2024/01/09 00:27:19;;;;;;;0.32;0.13;;;;;;;8.53;100.00;100956.81;6221588;23;20508;-84
2024/01/09 00:29:48;;;;;;;0.65;0.38;;;;;;;8.53;100.00;100950.78;6222271;23;20016;-84
2024/01/09 00:32:20;;;;;;;0.20;0.20;;;;;;;8.51;100.00;100953.28;6218653;23;20032;-82
2024/01/09 00:34:51;;;;;;;1.20;0.57;;;;;;;8.49;100.00;100944.59;6220221;23;20383;-83
2024/01/09 00:37:20;;;;;;;0.35;0.20;;;;;;;8.52;100.00;100942.16;6218826;23;20460;-84
2024/01/09 00:39:52;;;;;;;0.85;0.45;;;;;;;8.56;100.00;100944.03;6221034;23;20059;-81
2024/01/09 00:42:28;;;;;;;0.15;0.10;;;;;;;8.58;100.00;100950.13;6219222;23;20016;-83
2024/01/09 00:45:00;;;;;;;0.20;0.20;;;;;;;8.62;100.00;100952.84;6226499;23;20017;-81
2024/01/09 00:47:29;;;;;;;;;;;;;;;8.65;100.00;100950.38;6222219;23;20396;-82
2024/01/09 00:50:02;;;;;;;1.42;0.13;;;;;;;8.66;100.00;100939.22;6221615;23;20334;-82
2024/01/09 00:52:34;;;;;;;0.70;0.10;;;;;;;8.73;100.00;100941.28;6217280;23;20017;-81
2024/01/09 00:55:05;;;;;;;0.77;0.28;;;;;;;8.69;100.00;100929.94;6220726;23;20013;-82
2024/01/09 00:57:34;;;;;;;0.82;0.40;;;;;;;8.75;100.00;100926.69;6219715;23;20119;-82
2024/01/09 01:00:06;;;;;;;0.10;0.10;;;;;;;8.74;100.00;100909.47;6225362;23;20020;-85
2024/01/09 01:02:36;;;;;;;0.63;0.30;;;;;;;8.76;100.00;100918.16;6223826;23;20021;-83
2024/01/09 01:05:07;;;;;;;0.65;0.20;;;;;;;8.81;100.00;100911.47;6222149;23;20074;-84
2024/01/09 01:07:36;;;;;;;0.28;0.28;;;;;;;8.83;100.00;100909.84;6223942;23;20028;-83
2024/01/09 01:10:15;;;;;;;0.60;0.38;;;;;;;8.80;100.00;100902.00;6225179;23;20080;-83
2024/01/09 01:12:44;;;;;;;0.00;0.00;;;;;;;8.81;100.00;100901.16;6224305;23;20020;-83
2024/01/09 01:15:13;;;;;;;1.27;0.32;;;;;;;8.84;100.00;100895.22;6226703;23;20075;-83
2024/01/09 01:17:42;;;;;;;1.10;0.20;;;;;;;8.90;100.00;100886.03;6228163;23;20028;-81
2024/01/09 01:20:19;;;;;;;0.30;0.20;;;;;;;8.94;100.00;100887.03;6223838;23;20023;-83
2024/01/09 01:22:48;;;;;;;0.20;0.20;;;;;;;8.92;100.00;100881.81;6228200;23;20075;-84
2024/01/09 01:25:20;;;;;;;0.35;0.10;;;;;;;8.92;100.00;100881.81;6219730;23;20051;-84
2024/01/09 01:27:57;;;;;;;0.10;0.10;;;;;;;8.92;100.00;100879.22;6223004;23;20031;-86
2024/01/09 01:30:26;;;;;;;0.22;0.00;;;;;;;8.95;100.00;100884.50;6221884;23;20072;-87
2024/01/09 01:32:56;;;;;;;0.20;0.20;;;;;;;8.98;100.00;100870.84;6227073;23;20024;-86
2024/01/09 01:35:25;;;;;;;0.00;0.00;;;;;;;8.97;100.00;100871.66;6219285;23;20024;-90
2024/01/09 01:37:57;;;;;;;1.05;0.35;;;;;;;8.94;100.00;100861.22;6212202;23;20024;-83
2024/01/09 01:40:28;;;;;;;0.57;0.20;;;;;;;8.94;100.00;100862.09;6216872;23;20046;-83
2024/01/09 01:42:59;;;;;;;0.50;0.35;;;;;;;8.96;100.00;100865.63;6221938;23;20013;-84
2024/01/09 01:45:28;;;;;;;0.25;0.20;;;;;;;8.91;100.00;100848.19;6231908;23;20005;-83
2024/01/09 01:48:03;;;;;;;1.85;0.20;;;;;;;8.96;100.00;100846.69;6234379;23;20021;-87
2024/01/09 01:50:34;;;;;;;0.75;0.20;;;;;;;9.00;100.00;100852.00;6232632;23;20019;-86
2024/01/09 01:53:05;;;;;;;0.28;0.20;;;;;;;9.01;100.00;100837.41;6237131;23;20016;-88
2024/01/09 01:55:56;;;;;;;0.82;0.47;;;;;;;8.98;100.00;100827.84;6235761;23;20405;-92
2024/01/09 01:58:27;;;;;;;0.68;0.25;;;;;;;9.05;100.00;100823.78;6237379;23;20020;-86
2024/01/09 02:01:02;;;;;;;0.45;0.20;;;;;;;9.04;100.00;100796.22;6239147;23;20021;-90
2024/01/09 02:03:31;;;;;;;0.47;0.20;;;;;;;9.11;100.00;100805.06;6235909;23;20048;-90
2024/01/09 02:06:00;;;;;;;0.70;0.20;;;;;;;9.09;100.00;100794.66;6231611;23;20060;-83
2024/01/09 02:08:33;;;;;;;0.75;0.30;;;;;;;9.10;100.00;100780.94;6229238;23;20027;-86
2024/01/09 02:11:06;;;;;;;0.35;0.20;;;;;;;9.05;100.00;100791.91;6229007;23;20019;-86
2024/01/09 02:13:36;;;;;;;0.38;0.28;;;;;;;9.07;100.00;100780.84;6225732;23;20021;-83
2024/01/09 02:16:05;;;;;;;2.72;0.30;;;;;;;9.08;100.00;100799.78;6227827;23;20059;-84
2024/01/09 02:18:34;;;;;;;0.63;0.20;;;;;;;9.07;100.00;100790.28;6226642;23;20138;-85
2024/01/09 02:21:08;;;;;;;0.47;0.20;;;;;;;9.02;100.00;100772.94;6228625;23;20135;-88
2024/01/09 02:23:41;;;;;;;0.10;0.10;;;;;;;8.99;100.00;100759.91;6231335;23;20023;-87
2024/01/09 02:26:15;;;;;;;0.35;0.10;;;;;;;8.96;100.00;100757.22;6227957;23;20148;-84
2024/01/09 02:28:56;;;;;;;0.10;0.10;;;;;;;8.94;100.00;100751.13;6231284;23;20019;-86
2024/01/09 02:31:27;;;;;;;0.57;0.40;;;;;;;9.02;100.00;100746.22;6222295;23;20074;-83
2024/01/09 02:34:03;;;;;;;0.55;0.40;;;;;;;9.05;100.00;100740.31;6220926;23;20024;-85
2024/01/09 02:36:32;;;;;;;0.30;0.20;;;;;;;9.02;100.00;100731.66;6222634;23;20025;-85
2024/01/09 02:39:01;;;;;;;1.85;0.20;;;;;;;9.02;100.00;100735.91;6220192;23;20096;-82
2024/01/09 02:41:30;;;;;;;0.30;0.20;;;;;;;9.04;100.00;100720.50;6221797;23;20013;-81
2024/01/09 02:44:02;;;;;;;0.57;0.28;;;;;;;9.06;100.00;100731.75;6215994;23;20453;-83
2024/01/09 02:46:33;;;;;;;0.77;0.40;;;;;;;9.06;100.00;100736.91;6223305;23;20030;-86
2024/01/09 02:49:04;;;;;;;0.10;0.10;;;;;;;9.07;100.00;100738.66;6222260;23;20511;-86
2024/01/09 02:51:33;;;;;;;0.52;0.30;;;;;;;9.01;100.00;100726.44;6226423;23;20012;-87
2024/01/09 02:54:01;;;;;;;0.68;0.30;;;;;;;9.07;100.00;100705.09;6228313;23;20004;-87
2024/01/09 02:56:32;;;;;;;1.52;0.50;;;;;;;9.06;100.00;100711.09;6230107;23;20016;-85
2024/01/09 02:59:01;;;;;;;0.60;0.30;;;;;;;9.03;100.00;100701.56;6227453;23;20016;-85
2024/01/09 03:01:32;;;;;;;0.38;0.30;;;;;;;9.06;100.00;100705.94;6228865;23;20016;-86
2024/01/09 03:04:19;;;;;;;0.20;0.20;;;;;;;8.98;100.00;100719.47;6226916;23;20021;-86
2024/01/09 03:06:48;;;;;;;0.30;0.30;;;;;;;9.02;100.00;100710.09;6226681;23;20027;-84
2024/01/09 03:09:18;;;;;;;0.25;0.20;;;;;;;9.02;100.00;100705.84;6224625;23;20025;-83
2024/01/09 03:11:53;;;;;;;0.20;0.10;;;;;;;9.01;100.00;100708.38;6226992;23;20099;-83
2024/01/09 03:14:22;;;;;;;0.25;0.20;;;;;;;9.01;100.00;100698.91;6231086;23;20016;-84
2024/01/09 03:16:53;;;;;;;1.38;0.40;;;;;;;9.06;100.00;100708.53;6224481;23;20020;-85
2024/01/09 03:19:31;;;;;;;0.40;0.27;;;;;;;9.01;100.00;100703.19;6228979;23;20021;-85
2024/01/09 03:22:00;;;;;;;0.75;0.40;;;;;;;9.09;100.00;100706.03;6219743;23;20013;-84
2024/01/09 03:24:29;;;;;;;0.15;0.03;;;;;;;9.06;100.00;100690.44;6220755;23;20020;-85
2024/01/09 03:26:58;;;;;;;0.28;0.20;;;;;;;9.08;100.00;100705.16;6220509;23;20184;-83
2024/01/09 03:29:30;;;;;;;0.47;0.32;;;;;;;9.09;100.00;100687.97;6222450;23;20028;-86
2024/01/09 03:32:02;;;;;;;0.88;0.57;;;;;;;9.12;100.00;100678.63;6219155;23;20020;-86
2024/01/09 03:34:34;;;;;;;0.40;0.20;;;;;;;9.14;100.00;100661.50;6221370;23;20044;-87
2024/01/09 03:37:06;;;;;;;0.10;0.10;;;;;;;9.18;100.00;100657.31;6220982;23;20032;-88
2024/01/09 03:39:39;;;;;;;0.27;0.27;;;;;;;9.19;100.00;100641.00;6218587;23;20021;-87
2024/01/09 03:42:08;;;;;;;0.20;0.15;;;;;;;9.22;100.00;100638.50;6215906;23;20017;-85
2024/01/09 03:44:40;;;;;;;0.22;0.15;;;;;;;9.20;100.00;100645.31;6218251;23;20253;-86
2024/01/09 03:47:18;;;;;;;0.20;0.10;;;;;;;9.21;100.00;100639.34;6216131;23;20020;-86
2024/01/09 03:49:47;;;;;;;0.40;0.20;;;;;;;9.22;100.00;100625.59;6218235;23;20027;-84
2024/01/09 03:52:16;;;;;;;0.25;0.20;;;;;;;9.21;100.00;100627.31;6217437;23;20013;-85
2024/01/09 03:54:45;;;;;;;0.10;0.10;;;;;;;9.23;100.00;100617.91;6218171;23;20016;-84
2024/01/09 03:57:19;;;;;;;0.40;0.13;;;;;;;9.28;100.00;100614.59;6216160;23;20016;-87
2024/01/09 03:59:48;;;;;;;0.45;0.17;;;;;;;9.30;100.00;100612.94;6216036;23;20017;-84
2024/01/09 04:02:19;;;;;;;0.43;0.20;;;;;;;9.30;100.00;100611.25;6215499;23;20024;-86
2024/01/09 04:04:49;;;;;;;0.30;0.20;;;;;;;9.31;100.00;100599.22;6216969;23;20029;-88
2024/01/09 04:07:21;;;;;;;0.47;0.22;;;;;;;9.25;100.00;100576.63;6216534;23;20020;-85
2024/01/09 04:09:50;;;;;;;0.03;0.03;;;;;;;9.28;100.00;100563.84;6213253;23;20021;-86
2024/01/09 04:12:19;;;;;;;0.22;0.22;;;;;;;9.30;100.00;100562.19;6213164;23;20319;-85
2024/01/09 04:14:48;;;;;;;0.40;0.20;;;;;;;9.36;100.00;100556.34;6214324;23;20075;-84
2024/01/09 04:17:25;;;;;;;0.10;0.10;;;;;;;9.35;100.00;100550.31;6214991;23;20100;-86
2024/01/09 04:19:54;;;;;;;0.20;0.10;;;;;;;9.35;100.00;100532.22;6213619;23;20020;-86
2024/01/09 04:22:23;;;;;;;0.13;0.13;;;;;;;9.35;100.00;100529.66;6217268;23;20066;-87
2024/01/09 04:25:07;;;;;;;0.30;0.20;;;;;;;9.39;100.00;100534.06;6215460;23;20044;-86
2024/01/09 04:27:36;;;;;;;0.30;0.10;;;;;;;9.39;100.00;100520.25;6222785;23;20017;-87
2024/01/09 04:30:08;;;;;;;0.20;0.20;;;;;;;9.42;100.00;100513.50;6221875;23;20020;-88
2024/01/09 04:32:47;;;;;;;0.08;0.08;;;;;;;9.41;100.00;100509.19;6216720;23;20025;-87
2024/01/09 04:35:17;;;;;;;0.20;0.17;;;;;;;9.43;100.00;100501.47;6217283;23;20028;-86
2024/01/09 04:37:46;;;;;;;0.03;0.00;;;;;;;9.43;100.00;100504.91;6216012;23;20047;-86
2024/01/09 04:40:15;;;;;;;0.22;0.10;;;;;;;9.46;100.00;100492.91;6216413;23;20016;-87
2024/01/09 04:42:52;;;;;;;0.28;0.15;;;;;;;9.43;100.00;100480.78;6217298;23;20016;-85
2024/01/09 04:45:20;;;;;;;0.17;0.13;;;;;;;9.48;100.00;100479.22;6216354;23;20108;-84
2024/01/09 04:47:52;;;;;;;0.10;0.10;;;;;;;9.50;100.00;100471.53;6215638;23;20021;-85
2024/01/09 04:50:29;;;;;;;0.63;0.23;;;;;;;9.50;100.00;100466.38;6217637;23;20048;-86
2024/01/09 04:52:58;;;;;;;0.32;0.10;;;;;;;9.46;100.00;100461.94;6215587;23;20013;-86
2024/01/09 04:55:28;;;;;;;0.45;0.22;;;;;;;9.47;100.00;100455.97;6216050;23;20099;-86
2024/01/09 04:57:56;;;;;;;0.20;0.10;;;;;;;9.46;100.00;100455.09;6217173;23;20630;-85
2024/01/09 05:00:26;;;;;;;0.88;0.22;;;;;;;9.43;100.00;100442.06;6216720;23;20036;-85
2024/01/09 05:02:57;;;;;;;0.20;0.10;;;;;;;9.48;100.00;100447.34;6216772;23;20017;-85
2024/01/09 05:05:26;;;;;;;0.50;0.20;;;;;;;9.50;100.00;100425.03;6219165;23;20020;-83
2024/01/09 05:07:55;;;;;;;0.80;0.50;;;;;;;9.49;100.00;100419.00;6213995;23;20021;-85
2024/01/09 05:10:32;;;;;;;0.20;0.13;;;;;;;9.48;100.00;100426.69;6214652;23;20109;-84
2024/01/09 05:13:01;;;;;;;0.45;0.30;;;;;;;9.48;100.00;100411.22;6214276;23;20044;-85
2024/01/09 05:15:30;;;;;;;0.88;0.32;;;;;;;9.50;100.00;100402.66;6213463;23;20152;-83
2024/01/09 05:18:03;;;;;;;0.63;0.30;;;;;;;9.49;100.00;100400.94;6213731;23;20070;-85
2024/01/09 05:20:35;;;;;;;0.38;0.10;;;;;;;9.44;100.00;100403.38;6216074;23;20017;-87
2024/01/09 05:23:05;;;;;;;0.40;0.13;;;;;;;9.46;100.00;100368.97;6215692;23;20103;-85
2024/01/09 05:25:33;;;;;;;0.17;0.17;;;;;;;9.42;100.00;100368.88;6217250;23;20017;-86
2024/01/09 05:28:02;;;;;;;0.17;0.15;;;;;;;9.44;100.00;100364.66;6217493;23;20019;-86
2024/01/09 05:30:35;;;;;;;3.33;0.40;;;;;;;9.49;100.00;100364.78;6213758;23;20043;-85
2024/01/09 05:33:06;;;;;;;1.10;0.30;;;;;;;9.42;100.00;100361.13;6218989;23;20340;-85
2024/01/09 05:35:37;;;;;;;0.40;0.20;;;;;;;9.49;100.00;100361.31;6217403;23;20025;-86
2024/01/09 05:38:09;;;;;;;1.55;0.47;;;;;;;9.43;100.00;100344.81;6220305;23;20020;-86
2024/01/09 05:40:42;;;;;;;2.60;0.20;;;;;;;9.50;100.00;100340.69;6220151;23;20020;-85
2024/01/09 05:43:11;;;;;;;0.40;0.10;;;;;;;9.51;100.00;100333.84;6221313;23;20027;-86
2024/01/09 05:45:41;;;;;;;0.10;0.10;;;;;;;9.51;100.00;100332.13;6219781;23;20041;-86
2024/01/09 05:48:18;;;;;;;0.93;0.20;;;;;;;9.54;100.00;100316.69;6217948;23;20498;-86
2024/01/09 05:50:47;;;;;;;0.40;0.28;;;;;;;9.55;100.00;100325.31;6220938;23;20025;-86
2024/01/09 05:53:17;;;;;;;0.10;0.10;;;;;;;9.50;100.00;100321.72;6220356;23;20071;-86
2024/01/09 05:55:46;;;;;;;1.00;0.35;;;;;;;9.51;100.00;100305.44;6220486;23;20051;-84
2024/01/09 05:58:25;;;;;;;1.50;0.43;;;;;;;9.47;100.00;100312.19;6221623;23;20017;-85
2024/01/09 06:00:54;;;;;;;0.10;0.10;;;;;;;9.47;100.00;100307.03;6221750;23;20024;-85
2024/01/09 06:03:25;;;;;;;0.20;0.10;;;;;;;9.38;100.00;100291.28;6221953;23;20020;-87
2024/01/09 06:05:56;;;;;;;0.07;0.07;;;;;;;9.35;100.00;100292.09;6222655;23;20021;-85
2024/01/09 06:08:25;;;;;;;0.30;0.15;;;;;;;9.38;100.00;100287.00;6225855;23;20021;-85
2024/01/09 06:10:54;;;;;;;0.20;0.10;;;;;;;9.42;100.00;100287.97;6222202;23;20025;-88
2024/01/09 06:13:24;;;;;;;0.85;0.20;;;;;;;9.36;100.00;100269.72;6221895;23;20067;-85
2024/01/09 06:15:53;;;;;;;0.28;0.17;;;;;;;9.42;100.00;100272.47;6221921;23;20016;-85
2024/01/09 06:18:27;;;;;;;0.10;0.10;;;;;;;9.38;100.00;100274.09;6225555;23;20021;-85
2024/01/09 06:20:57;;;;;;;0.10;0.08;;;;;;;9.36;100.00;100278.34;6221402;23;20511;-86
2024/01/09 06:23:25;;;;;;;0.30;0.10;;;;;;;9.32;100.00;100261.03;6220108;23;20086;-85
2024/01/09 06:26:05;;;;;;;;;;;;;;;;;;;;;
2024/01/09 06:28:37;;;;;;;1.20;0.30;;;;;;;9.34;100.00;100249.00;6220776;23;20421;-86
2024/01/09 06:31:06;;;;;;;0.30;0.10;;;;;;;9.37;100.00;100256.88;6219004;23;20338;-85
2024/01/09 06:33:47;;;;;;;;;;;;;;;;;;;;;
2024/01/09 06:36:16;;;;;;;0.10;0.08;;;;;;;9.37;100.00;100240.50;6219922;23;20017;-86
2024/01/09 06:38:45;;;;;;;0.30;0.10;;;;;;;9.33;100.00;100241.25;6222771;23;20056;-86
2024/01/09 06:41:15;;;;;;;0.00;0.00;;;;;;;9.34;100.00;100248.16;6223152;23;20460;-86
2024/01/09 06:43:47;;;;;;;2.15;0.10;;;;;;;9.30;100.00;100220.50;6222637;23;20024;-88
2024/01/09 06:46:16;;;;;;;0.00;0.00;;;;;;;9.33;100.00;100226.63;6228060;23;20040;-88
2024/01/09 06:48:46;;;;;;;0.30;0.10;;;;;;;9.33;100.00;100203.38;6229721;23;20257;-87
2024/01/09 06:51:16;;;;;;;1.75;0.03;;;;;;;9.32;100.00;100201.66;6224865;23;20024;-87
2024/01/09 06:53:53;;;;;;;0.93;0.10;;;;;;;9.33;100.00;100200.81;6221751;23;20021;-86
2024/01/09 06:56:22;;;;;;;0.13;0.10;;;;;;;9.25;100.00;100197.13;6222466;23;20028;-86
2024/01/09 06:58:51;;;;;;;0.00;0.00;;;;;;;9.29;100.00;100192.94;6222398;23;20020;-87
2024/01/09 07:01:24;;;;;;;0.10;0.00;;;;;;;9.21;100.00;100174.69;6220140;23;20104;-86
2024/01/09 07:03:58;;;;;;;5.82;0.43;;;;;;;9.27;100.00;100181.69;6218796;23;20067;-87
2024/01/09 07:06:28;;;;;;;0.38;0.10;;;;;;;9.26;100.00;100175.69;6218369;23;20403;-86
2024/01/09 07:08:57;;;;;;;0.20;0.10;;;;;;;9.19;100.00;100176.34;6218771;23;20017;-87
2024/01/09 07:11:29;;;;;;;0.30;0.13;;;;;;;9.21;100.00;100185.00;6218333;23;20020;-86
2024/01/09 07:14:00;;;;;;;0.10;0.10;;;;;;;9.19;100.00;100164.31;6217691;23;20021;-86
2024/01/09 07:16:29;;;;;;;0.15;0.10;;;;;;;9.17;100.00;100173.72;6218075;23;20020;-88
2024/01/09 07:19:00;;;;;;;0.35;0.20;;;;;;;9.21;100.00;100165.22;6216153;23;20024;-86
2024/01/09 07:21:32;;;;;;;1.45;0.10;;;;;;;9.21;100.00;100154.03;6216153;23;20084;-85
2024/01/09 07:24:00;;;;;;;0.10;0.10;;;;;;;9.20;100.00;100153.13;6215819;23;20047;-88
2024/01/09 07:26:30;;;;;;;1.02;0.13;;;;;;;9.15;100.00;100146.13;6213974;23;20096;-88
2024/01/09 07:28:59;;;;;;;0.30;0.13;;;;;;;9.14;100.00;100141.78;6215211;23;20043;-86
2024/01/09 07:31:35;;;;;;;1.00;0.30;;;;;;;9.16;100.00;100135.84;6215119;23;20021;-90
2024/01/09 07:34:06;;;;;;;1.23;0.30;;;;;;;9.08;100.00;100100.34;6214557;23;20044;-89
2024/01/09 07:36:35;;;;;;;0.03;0.03;;;;;;;9.10;100.00;100088.38;6215888;23;20044;-87
2024/01/09 07:39:05;;;;;;;0.32;0.20;;;;;;;9.07;100.00;100068.53;6213478;23;20072;-87
2024/01/09 07:41:47;;;;;;;0.10;0.10;;;;;;;8.98;100.00;100066.59;6216236;23;20519;-88
2024/01/09 15:50:03;;;;;;;5.78;0.82;;;;;;;7.00;100.00;100353.22;6215153;22;20025;-86
2024/01/09 15:52:33;;;;;;;3.78;0.43;;;;;;;6.98;100.00;100378.00;6210963;23;20020;-87
2024/01/09 15:55:02;;;;;;;7.18;1.00;;;;;;;6.99;100.00;100390.06;6214401;23;20075;-86
2024/01/09 15:57:39;;;;;;;8.70;0.88;;;;;;;6.96;100.00;100402.78;6213103;23;20095;-86
2024/01/09 16:00:10;;;;;;;3.95;0.82;;;;;;;6.95;100.00;100429.34;6210289;23;20025;-85
2024/01/09 16:02:42;;;;;;;8.80;1.23;;;;;;;6.90;100.00;100429.16;6212019;23;20032;-88
2024/01/09 19:35:13;;;;;;;0.77;0.33;;;;;;;6.80;100.00;100645.63;6218984;22;20035;-86
2024/01/09 19:37:48;;;;;;;5.60;1.05;;;;;;;6.79;100.00;100626.75;6215514;23;20024;-85
2024/01/09 23:44:43;;;;;;;3.50;0.88;;;;;;;6.68;100.00;100741.13;6217615;22;20453;-88
2024/01/09 23:47:15;;;;;;;2.10;0.55;;;;;;;6.62;100.00;100727.97;6222897;23;20070;-88
